sensor_id;sensor_type;location;lat;lon;timestamp;P1;durP1;ratioP1;P2;durP2;ratioP2
6725;SDS011;3400;48.506;11.692;2023-06-10T00:00:15;6.87;;;5.93;;
6725;SDS011;3400;48.506;11.692;2023-06-10T00:02:45;7.37;;;5.87;;
6725;SDS011;3400;48.506;11.692;2023-06-10T00:05:13;6.90;;;6.20;;
6725;SDS011;3400;48.506;11.692;2023-06-10T00:07:42;6.53;;;5.90;;
6725;SDS011;3400;48.506;11.692;2023-06-10T00:10:12;6.87;;;6.27;;
6725;SDS011;3400;48.506;11.692;2023-06-10T00:12:39;6.97;;;6.37;;
6725;SDS011;3400;48.506;11.692;2023-06-10T00:15:08;6.60;;;6.00;;
6725;SDS011;3400;48.506;11.692;2023-06-10T00:17:36;6.23;;;5.73;;
6725;SDS011;3400;48.506;11.692;2023-06-10T00:20:07;6.50;;;5.80;;
6725;SDS011;3400;48.506;11.692;2023-06-10T00:22:37;6.50;;;6.00;;
6725;SDS011;3400;48.506;11.692;2023-06-10T00:25:07;6.80;;;6.20;;
6725;SDS011;3400;48.506;11.692;2023-06-10T00:27:36;7.53;;;6.67;;
6725;SDS011;3400;48.506;11.692;2023-06-10T00:30:04;7.00;;;6.40;;
6725;SDS011;3400;48.506;11.692;2023-06-10T00:32:33;6.63;;;6.13;;
6725;SDS011;3400;48.506;11.692;2023-06-10T00:35:01;6.87;;;6.27;;
6725;SDS011;3400;48.506;11.692;2023-06-10T00:37:32;7.37;;;6.53;;
6725;SDS011;3400;48.506;11.692;2023-06-10T00:40:02;6.73;;;5.60;;
6725;SDS011;3400;48.506;11.692;2023-06-10T00:42:31;6.87;;;6.27;;
6725;SDS011;3400;48.506;11.692;2023-06-10T00:44:59;6.77;;;6.23;;
6725;SDS011;3400;48.506;11.692;2023-06-10T00:47:27;6.80;;;6.20;;
6725;SDS011;3400;48.506;11.692;2023-06-10T00:49:55;7.97;;;7.17;;
6725;SDS011;3400;48.506;11.692;2023-06-10T00:52:24;7.50;;;6.90;;
6725;SDS011;3400;48.506;11.692;2023-06-10T00:54:56;7.30;;;6.70;;
6725;SDS011;3400;48.506;11.692;2023-06-10T00:57:24;7.60;;;6.90;;
6725;SDS011;3400;48.506;11.692;2023-06-10T00:59:53;7.67;;;7.07;;
6725;SDS011;3400;48.506;11.692;2023-06-10T01:02:21;6.93;;;6.33;;
6725;SDS011;3400;48.506;11.692;2023-06-10T01:04:50;7.17;;;6.47;;
6725;SDS011;3400;48.506;11.692;2023-06-10T01:07:20;7.53;;;6.83;;
6725;SDS011;3400;48.506;11.692;2023-06-10T01:09:50;7.07;;;6.43;;
6725;SDS011;3400;48.506;11.692;2023-06-10T01:12:26;7.50;;;6.87;;
6725;SDS011;3400;48.506;11.692;2023-06-10T01:14:55;6.83;;;6.23;;
6725;SDS011;3400;48.506;11.692;2023-06-10T01:17:23;6.40;;;5.90;;
6725;SDS011;3400;48.506;11.692;2023-06-10T01:19:53;7.40;;;6.80;;
6725;SDS011;3400;48.506;11.692;2023-06-10T01:22:24;6.93;;;6.33;;
6725;SDS011;3400;48.506;11.692;2023-06-10T01:24:54;7.10;;;6.40;;
6725;SDS011;3400;48.506;11.692;2023-06-10T01:27:25;7.40;;;6.70;;
6725;SDS011;3400;48.506;11.692;2023-06-10T01:29:58;7.60;;;6.90;;
6725;SDS011;3400;48.506;11.692;2023-06-10T01:32:31;8.30;;;6.47;;
6725;SDS011;3400;48.506;11.692;2023-06-10T01:35:01;7.50;;;6.33;;
6725;SDS011;3400;48.506;11.692;2023-06-10T01:37:31;7.30;;;6.60;;
6725;SDS011;3400;48.506;11.692;2023-06-10T01:40:00;7.20;;;6.60;;
6725;SDS011;3400;48.506;11.692;2023-06-10T01:42:31;7.00;;;6.40;;
6725;SDS011;3400;48.506;11.692;2023-06-10T01:44:59;7.23;;;6.20;;
6725;SDS011;3400;48.506;11.692;2023-06-10T01:47:27;7.20;;;6.50;;
6725;SDS011;3400;48.506;11.692;2023-06-10T01:49:55;7.37;;;6.67;;
6725;SDS011;3400;48.506;11.692;2023-06-10T01:52:23;8.10;;;7.40;;
6725;SDS011;3400;48.506;11.692;2023-06-10T01:54:53;7.80;;;7.10;;
6725;SDS011;3400;48.506;11.692;2023-06-10T01:57:21;7.57;;;6.87;;
6725;SDS011;3400;48.506;11.692;2023-06-10T01:59:49;7.07;;;6.47;;
6725;SDS011;3400;48.506;11.692;2023-06-10T02:02:17;8.17;;;7.23;;
6725;SDS011;3400;48.506;11.692;2023-06-10T02:04:44;7.83;;;7.13;;
6725;SDS011;3400;48.506;11.692;2023-06-10T02:07:12;7.50;;;6.90;;
6725;SDS011;3400;48.506;11.692;2023-06-10T02:09:41;8.67;;;7.77;;
6725;SDS011;3400;48.506;11.692;2023-06-10T02:12:10;9.00;;;8.13;;
6725;SDS011;3400;48.506;11.692;2023-06-10T02:14:38;8.67;;;7.97;;
6725;SDS011;3400;48.506;11.692;2023-06-10T02:17:07;8.07;;;6.97;;
6725;SDS011;3400;48.506;11.692;2023-06-10T02:19:38;8.40;;;7.63;;
6725;SDS011;3400;48.506;11.692;2023-06-10T02:22:09;7.87;;;7.17;;
6725;SDS011;3400;48.506;11.692;2023-06-10T02:24:37;8.03;;;7.33;;
6725;SDS011;3400;48.506;11.692;2023-06-10T02:27:05;8.43;;;7.63;;
6725;SDS011;3400;48.506;11.692;2023-06-10T02:29:35;8.33;;;7.60;;
6725;SDS011;3400;48.506;11.692;2023-06-10T02:32:04;7.80;;;7.10;;
6725;SDS011;3400;48.506;11.692;2023-06-10T02:34:32;8.17;;;7.37;;
6725;SDS011;3400;48.506;11.692;2023-06-10T02:37:01;7.87;;;7.17;;
6725;SDS011;3400;48.506;11.692;2023-06-10T02:39:29;8.17;;;7.47;;
6725;SDS011;3400;48.506;11.692;2023-06-10T02:41:57;8.47;;;7.77;;
6725;SDS011;3400;48.506;11.692;2023-06-10T02:44:25;9.27;;;8.47;;
6725;SDS011;3400;48.506;11.692;2023-06-10T02:46:55;8.80;;;8.03;;
6725;SDS011;3400;48.506;11.692;2023-06-10T02:49:23;9.30;;;8.40;;
6725;SDS011;3400;48.506;11.692;2023-06-10T02:51:53;8.87;;;8.03;;
6725;SDS011;3400;48.506;11.692;2023-06-10T02:54:23;8.87;;;8.17;;
6725;SDS011;3400;48.506;11.692;2023-06-10T02:56:53;8.83;;;7.93;;
6725;SDS011;3400;48.506;11.692;2023-06-10T02:59:24;9.40;;;8.60;;
6725;SDS011;3400;48.506;11.692;2023-06-10T03:01:53;9.00;;;8.20;;
6725;SDS011;3400;48.506;11.692;2023-06-10T03:04:23;8.80;;;8.00;;
6725;SDS011;3400;48.506;11.692;2023-06-10T03:07:00;8.47;;;7.73;;
6725;SDS011;3400;48.506;11.692;2023-06-10T03:09:31;9.07;;;8.17;;
6725;SDS011;3400;48.506;11.692;2023-06-10T03:12:00;9.47;;;8.57;;
6725;SDS011;3400;48.506;11.692;2023-06-10T03:14:33;8.50;;;7.80;;
6725;SDS011;3400;48.506;11.692;2023-06-10T03:17:02;8.43;;;7.63;;
6725;SDS011;3400;48.506;11.692;2023-06-10T03:19:33;9.10;;;8.20;;
6725;SDS011;3400;48.506;11.692;2023-06-10T03:22:08;8.60;;;7.83;;
6725;SDS011;3400;48.506;11.692;2023-06-10T03:24:39;9.40;;;8.50;;
6725;SDS011;3400;48.506;11.692;2023-06-10T03:27:09;7.80;;;7.10;;
6725;SDS011;3400;48.506;11.692;2023-06-10T03:29:38;9.60;;;8.70;;
6725;SDS011;3400;48.506;11.692;2023-06-10T03:32:07;9.33;;;8.43;;
6725;SDS011;3400;48.506;11.692;2023-06-10T03:34:40;10.13;;;9.00;;
6725;SDS011;3400;48.506;11.692;2023-06-10T03:37:08;8.63;;;7.93;;
6725;SDS011;3400;48.506;11.692;2023-06-10T03:39:37;8.80;;;8.00;;
6725;SDS011;3400;48.506;11.692;2023-06-10T03:42:06;8.67;;;7.77;;
6725;SDS011;3400;48.506;11.692;2023-06-10T03:44:34;8.83;;;8.13;;
6725;SDS011;3400;48.506;11.692;2023-06-10T03:47:02;10.43;;;9.43;;
6725;SDS011;3400;48.506;11.692;2023-06-10T03:49:31;10.00;;;9.10;;
6725;SDS011;3400;48.506;11.692;2023-06-10T03:52:03;10.20;;;9.20;;
6725;SDS011;3400;48.506;11.692;2023-06-10T03:54:31;9.80;;;8.80;;
6725;SDS011;3400;48.506;11.692;2023-06-10T03:57:00;10.47;;;9.33;;
6725;SDS011;3400;48.506;11.692;2023-06-10T03:59:29;9.97;;;9.07;;
6725;SDS011;3400;48.506;11.692;2023-06-10T04:01:58;9.00;;;8.20;;
6725;SDS011;3400;48.506;11.692;2023-06-10T04:04:26;9.27;;;8.57;;
6725;SDS011;3400;48.506;11.692;2023-06-10T04:06:54;9.10;;;8.13;;
6725;SDS011;3400;48.506;11.692;2023-06-10T04:09:23;9.70;;;8.70;;
6725;SDS011;3400;48.506;11.692;2023-06-10T04:11:51;9.97;;;8.97;;
6725;SDS011;3400;48.506;11.692;2023-06-10T04:14:19;9.63;;;8.73;;
6725;SDS011;3400;48.506;11.692;2023-06-10T04:16:47;8.93;;;8.13;;
6725;SDS011;3400;48.506;11.692;2023-06-10T04:19:16;9.50;;;8.63;;
6725;SDS011;3400;48.506;11.692;2023-06-10T04:21:44;9.30;;;8.50;;
6725;SDS011;3400;48.506;11.692;2023-06-10T04:24:12;11.50;;;9.10;;
6725;SDS011;3400;48.506;11.692;2023-06-10T04:26:43;10.67;;;9.30;;
6725;SDS011;3400;48.506;11.692;2023-06-10T04:29:12;10.23;;;8.77;;
6725;SDS011;3400;48.506;11.692;2023-06-10T04:31:40;8.77;;;7.97;;
6725;SDS011;3400;48.506;11.692;2023-06-10T04:34:09;9.53;;;8.63;;
6725;SDS011;3400;48.506;11.692;2023-06-10T04:36:37;9.97;;;8.87;;
6725;SDS011;3400;48.506;11.692;2023-06-10T04:39:05;9.63;;;8.83;;
6725;SDS011;3400;48.506;11.692;2023-06-10T04:41:34;9.83;;;8.93;;
6725;SDS011;3400;48.506;11.692;2023-06-10T04:44:04;9.73;;;8.73;;
6725;SDS011;3400;48.506;11.692;2023-06-10T04:46:32;9.97;;;9.00;;
6725;SDS011;3400;48.506;11.692;2023-06-10T04:49:01;9.33;;;8.53;;
6725;SDS011;3400;48.506;11.692;2023-06-10T04:51:30;8.80;;;8.00;;
6725;SDS011;3400;48.506;11.692;2023-06-10T04:53:59;9.77;;;8.87;;
6725;SDS011;3400;48.506;11.692;2023-06-10T04:56:29;10.63;;;9.73;;
6725;SDS011;3400;48.506;11.692;2023-06-10T04:58:57;9.50;;;8.70;;
6725;SDS011;3400;48.506;11.692;2023-06-10T05:01:26;9.60;;;8.70;;
6725;SDS011;3400;48.506;11.692;2023-06-10T05:03:54;9.63;;;8.67;;
6725;SDS011;3400;48.506;11.692;2023-06-10T05:06:22;9.47;;;8.47;;
6725;SDS011;3400;48.506;11.692;2023-06-10T05:08:50;9.80;;;8.77;;
6725;SDS011;3400;48.506;11.692;2023-06-10T05:11:18;9.83;;;8.83;;
6725;SDS011;3400;48.506;11.692;2023-06-10T05:13:46;9.90;;;9.00;;
6725;SDS011;3400;48.506;11.692;2023-06-10T05:16:14;9.83;;;8.43;;
6725;SDS011;3400;48.506;11.692;2023-06-10T05:18:43;9.80;;;8.80;;
6725;SDS011;3400;48.506;11.692;2023-06-10T05:21:11;8.90;;;8.00;;
6725;SDS011;3400;48.506;11.692;2023-06-10T05:23:39;9.13;;;8.33;;
6725;SDS011;3400;48.506;11.692;2023-06-10T05:26:07;9.50;;;8.60;;
6725;SDS011;3400;48.506;11.692;2023-06-10T05:28:35;8.70;;;7.90;;
6725;SDS011;3400;48.506;11.692;2023-06-10T05:31:03;8.87;;;8.13;;
6725;SDS011;3400;48.506;11.692;2023-06-10T05:33:31;9.33;;;8.47;;
6725;SDS011;3400;48.506;11.692;2023-06-10T05:36:00;8.03;;;7.33;;
6725;SDS011;3400;48.506;11.692;2023-06-10T05:38:28;11.37;;;8.03;;
6725;SDS011;3400;48.506;11.692;2023-06-10T05:40:56;8.83;;;8.00;;
6725;SDS011;3400;48.506;11.692;2023-06-10T05:43:24;8.33;;;7.50;;
6725;SDS011;3400;48.506;11.692;2023-06-10T05:45:52;8.60;;;7.50;;
6725;SDS011;3400;48.506;11.692;2023-06-10T05:48:20;8.40;;;7.60;;
6725;SDS011;3400;48.506;11.692;2023-06-10T05:50:48;8.70;;;7.93;;
6725;SDS011;3400;48.506;11.692;2023-06-10T05:53:17;8.07;;;7.37;;
6725;SDS011;3400;48.506;11.692;2023-06-10T05:55:45;7.77;;;7.07;;
6725;SDS011;3400;48.506;11.692;2023-06-10T05:58:14;9.83;;;7.10;;
6725;SDS011;3400;48.506;11.692;2023-06-10T06:00:42;8.17;;;7.47;;
6725;SDS011;3400;48.506;11.692;2023-06-10T06:03:10;9.10;;;7.57;;
6725;SDS011;3400;48.506;11.692;2023-06-10T06:05:38;6.83;;;6.33;;
6725;SDS011;3400;48.506;11.692;2023-06-10T06:08:06;8.07;;;7.30;;
6725;SDS011;3400;48.506;11.692;2023-06-10T06:10:35;8.05;;;7.45;;
6725;SDS011;3400;48.506;11.692;2023-06-10T06:13:03;7.00;;;6.40;;
6725;SDS011;3400;48.506;11.692;2023-06-10T06:15:31;7.03;;;6.43;;
6725;SDS011;3400;48.506;11.692;2023-06-10T06:17:59;6.83;;;6.23;;
6725;SDS011;3400;48.506;11.692;2023-06-10T06:20:26;6.87;;;6.30;;
6725;SDS011;3400;48.506;11.692;2023-06-10T06:22:54;8.53;;;7.73;;
6725;SDS011;3400;48.506;11.692;2023-06-10T06:25:22;6.97;;;6.37;;
6725;SDS011;3400;48.506;11.692;2023-06-10T06:27:52;6.33;;;5.73;;
6725;SDS011;3400;48.506;11.692;2023-06-10T06:30:19;6.87;;;6.17;;
6725;SDS011;3400;48.506;11.692;2023-06-10T06:32:47;6.70;;;6.20;;
6725;SDS011;3400;48.506;11.692;2023-06-10T06:35:15;7.50;;;6.77;;
6725;SDS011;3400;48.506;11.692;2023-06-10T06:37:43;7.50;;;6.70;;
6725;SDS011;3400;48.506;11.692;2023-06-10T06:40:19;6.50;;;6.00;;
6725;SDS011;3400;48.506;11.692;2023-06-10T06:42:47;5.60;;;5.20;;
6725;SDS011;3400;48.506;11.692;2023-06-10T06:45:23;7.70;;;6.27;;
6725;SDS011;3400;48.506;11.692;2023-06-10T06:47:51;6.43;;;5.83;;
6725;SDS011;3400;48.506;11.692;2023-06-10T06:50:19;6.43;;;5.87;;
6725;SDS011;3400;48.506;11.692;2023-06-10T06:52:47;6.43;;;5.93;;
6725;SDS011;3400;48.506;11.692;2023-06-10T06:55:14;7.13;;;6.03;;
6725;SDS011;3400;48.506;11.692;2023-06-10T06:57:42;6.10;;;5.57;;
6725;SDS011;3400;48.506;11.692;2023-06-10T07:00:12;5.93;;;5.43;;
6725;SDS011;3400;48.506;11.692;2023-06-10T07:02:41;5.20;;;4.80;;
6725;SDS011;3400;48.506;11.692;2023-06-10T07:05:09;5.87;;;5.37;;
6725;SDS011;3400;48.506;11.692;2023-06-10T07:07:37;5.10;;;4.70;;
6725;SDS011;3400;48.506;11.692;2023-06-10T07:10:05;6.13;;;5.63;;
6725;SDS011;3400;48.506;11.692;2023-06-10T07:12:33;6.20;;;5.60;;
6725;SDS011;3400;48.506;11.692;2023-06-10T07:15:01;5.27;;;4.87;;
6725;SDS011;3400;48.506;11.692;2023-06-10T07:17:29;5.70;;;5.20;;
6725;SDS011;3400;48.506;11.692;2023-06-10T07:19:59;5.47;;;5.07;;
6725;SDS011;3400;48.506;11.692;2023-06-10T07:22:27;5.80;;;5.30;;
6725;SDS011;3400;48.506;11.692;2023-06-10T07:24:55;7.03;;;6.13;;
6725;SDS011;3400;48.506;11.692;2023-06-10T07:27:22;6.13;;;5.57;;
6725;SDS011;3400;48.506;11.692;2023-06-10T07:29:51;6.30;;;5.80;;
6725;SDS011;3400;48.506;11.692;2023-06-10T07:32:19;6.03;;;5.53;;
6725;SDS011;3400;48.506;11.692;2023-06-10T07:34:50;6.43;;;5.93;;
6725;SDS011;3400;48.506;11.692;2023-06-10T07:37:19;5.87;;;5.37;;
6725;SDS011;3400;48.506;11.692;2023-06-10T07:39:54;6.20;;;5.70;;
6725;SDS011;3400;48.506;11.692;2023-06-10T07:42:31;5.90;;;5.50;;
6725;SDS011;3400;48.506;11.692;2023-06-10T07:44:59;5.93;;;5.43;;
6725;SDS011;3400;48.506;11.692;2023-06-10T07:47:28;5.33;;;4.93;;
6725;SDS011;3400;48.506;11.692;2023-06-10T07:49:56;5.53;;;5.13;;
6725;SDS011;3400;48.506;11.692;2023-06-10T07:52:28;5.07;;;4.67;;
6725;SDS011;3400;48.506;11.692;2023-06-10T07:55:05;6.20;;;5.70;;
6725;SDS011;3400;48.506;11.692;2023-06-10T07:57:35;5.73;;;5.13;;
6725;SDS011;3400;48.506;11.692;2023-06-10T08:00:05;5.87;;;5.37;;
6725;SDS011;3400;48.506;11.692;2023-06-10T08:02:39;6.13;;;5.63;;
6725;SDS011;3400;48.506;11.692;2023-06-10T08:05:08;12.03;;;5.40;;
6725;SDS011;3400;48.506;11.692;2023-06-10T08:07:37;7.73;;;5.33;;
6725;SDS011;3400;48.506;11.692;2023-06-10T08:10:06;7.07;;;4.67;;
6725;SDS011;3400;48.506;11.692;2023-06-10T08:12:34;7.67;;;5.03;;
6725;SDS011;3400;48.506;11.692;2023-06-10T08:15:03;12.03;;;5.50;;
6725;SDS011;3400;48.506;11.692;2023-06-10T08:17:31;5.83;;;4.97;;
6725;SDS011;3400;48.506;11.692;2023-06-10T08:20:04;5.90;;;5.33;;
6725;SDS011;3400;48.506;11.692;2023-06-10T08:22:33;5.27;;;4.83;;
6725;SDS011;3400;48.506;11.692;2023-06-10T08:25:02;6.33;;;5.83;;
6725;SDS011;3400;48.506;11.692;2023-06-10T08:27:30;5.67;;;5.17;;
6725;SDS011;3400;48.506;11.692;2023-06-10T08:29:58;5.40;;;5.00;;
6725;SDS011;3400;48.506;11.692;2023-06-10T08:32:26;5.73;;;5.23;;
6725;SDS011;3400;48.506;11.692;2023-06-10T08:34:54;5.80;;;5.30;;
6725;SDS011;3400;48.506;11.692;2023-06-10T08:37:22;5.50;;;5.10;;
6725;SDS011;3400;48.506;11.692;2023-06-10T08:39:50;5.37;;;4.97;;
6725;SDS011;3400;48.506;11.692;2023-06-10T08:42:21;5.40;;;5.00;;
6725;SDS011;3400;48.506;11.692;2023-06-10T08:44:51;5.90;;;5.40;;
6725;SDS011;3400;48.506;11.692;2023-06-10T08:47:22;6.10;;;5.60;;
6725;SDS011;3400;48.506;11.692;2023-06-10T08:49:50;6.77;;;5.90;;
6725;SDS011;3400;48.506;11.692;2023-06-10T08:52:20;5.43;;;5.03;;
6725;SDS011;3400;48.506;11.692;2023-06-10T08:54:48;5.90;;;5.27;;
6725;SDS011;3400;48.506;11.692;2023-06-10T08:57:17;6.33;;;5.63;;
6725;SDS011;3400;48.506;11.692;2023-06-10T08:59:49;6.67;;;5.87;;
6725;SDS011;3400;48.506;11.692;2023-06-10T09:02:19;6.27;;;5.77;;
6725;SDS011;3400;48.506;11.692;2023-06-10T09:04:47;5.53;;;5.13;;
6725;SDS011;3400;48.506;11.692;2023-06-10T09:07:17;6.47;;;5.87;;
6725;SDS011;3400;48.506;11.692;2023-06-10T09:09:45;5.40;;;5.00;;
6725;SDS011;3400;48.506;11.692;2023-06-10T09:12:13;5.73;;;5.23;;
6725;SDS011;3400;48.506;11.692;2023-06-10T09:14:41;6.03;;;5.63;;
6725;SDS011;3400;48.506;11.692;2023-06-10T09:17:11;6.37;;;5.87;;
6725;SDS011;3400;48.506;11.692;2023-06-10T09:19:38;5.90;;;5.40;;
6725;SDS011;3400;48.506;11.692;2023-06-10T09:22:07;6.77;;;5.90;;
6725;SDS011;3400;48.506;11.692;2023-06-10T09:24:35;6.33;;;5.83;;
6725;SDS011;3400;48.506;11.692;2023-06-10T09:27:09;5.53;;;5.03;;
6725;SDS011;3400;48.506;11.692;2023-06-10T09:29:47;5.57;;;5.17;;
6725;SDS011;3400;48.506;11.692;2023-06-10T09:32:18;5.20;;;4.90;;
6725;SDS011;3400;48.506;11.692;2023-06-10T09:34:47;5.93;;;5.23;;
6725;SDS011;3400;48.506;11.692;2023-06-10T09:37:19;5.93;;;5.50;;
6725;SDS011;3400;48.506;11.692;2023-06-10T09:40:00;4.93;;;4.57;;
6725;SDS011;3400;48.506;11.692;2023-06-10T09:42:29;6.73;;;4.83;;
6725;SDS011;3400;48.506;11.692;2023-06-10T09:44:59;5.67;;;5.17;;
6725;SDS011;3400;48.506;11.692;2023-06-10T09:47:29;5.60;;;5.10;;
6725;SDS011;3400;48.506;11.692;2023-06-10T09:49:57;4.97;;;4.50;;
6725;SDS011;3400;48.506;11.692;2023-06-10T09:52:25;4.97;;;4.57;;
6725;SDS011;3400;48.506;11.692;2023-06-10T09:54:53;5.33;;;4.93;;
6725;SDS011;3400;48.506;11.692;2023-06-10T09:57:21;5.20;;;4.80;;
6725;SDS011;3400;48.506;11.692;2023-06-10T09:59:51;5.03;;;4.73;;
6725;SDS011;3400;48.506;11.692;2023-06-10T10:02:20;5.27;;;4.60;;
6725;SDS011;3400;48.506;11.692;2023-06-10T10:04:50;5.00;;;4.43;;
6725;SDS011;3400;48.506;11.692;2023-06-10T10:07:18;5.07;;;4.57;;
6725;SDS011;3400;48.506;11.692;2023-06-10T10:09:46;4.23;;;3.93;;
6725;SDS011;3400;48.506;11.692;2023-06-10T10:12:15;4.70;;;4.30;;
6725;SDS011;3400;48.506;11.692;2023-06-10T10:14:45;5.70;;;5.00;;
6725;SDS011;3400;48.506;11.692;2023-06-10T10:17:14;4.90;;;4.50;;
6725;SDS011;3400;48.506;11.692;2023-06-10T10:19:43;6.20;;;4.67;;
6725;SDS011;3400;48.506;11.692;2023-06-10T10:22:18;5.30;;;4.87;;
6725;SDS011;3400;48.506;11.692;2023-06-10T10:24:49;5.20;;;4.77;;
6725;SDS011;3400;48.506;11.692;2023-06-10T10:27:18;4.83;;;4.50;;
6725;SDS011;3400;48.506;11.692;2023-06-10T10:29:46;5.67;;;5.27;;
6725;SDS011;3400;48.506;11.692;2023-06-10T10:32:15;5.47;;;5.07;;
6725;SDS011;3400;48.506;11.692;2023-06-10T10:34:44;5.77;;;5.13;;
6725;SDS011;3400;48.506;11.692;2023-06-10T10:37:16;5.57;;;5.17;;
6725;SDS011;3400;48.506;11.692;2023-06-10T10:39:44;6.67;;;5.20;;
6725;SDS011;3400;48.506;11.692;2023-06-10T10:42:12;5.53;;;5.10;;
6725;SDS011;3400;48.506;11.692;2023-06-10T10:44:41;6.27;;;5.00;;
6725;SDS011;3400;48.506;11.692;2023-06-10T10:47:09;6.17;;;5.57;;
6725;SDS011;3400;48.506;11.692;2023-06-10T10:49:37;6.03;;;5.53;;
6725;SDS011;3400;48.506;11.692;2023-06-10T10:52:10;5.80;;;5.30;;
6725;SDS011;3400;48.506;11.692;2023-06-10T10:54:43;5.80;;;5.30;;
6725;SDS011;3400;48.506;11.692;2023-06-10T10:57:11;6.43;;;5.90;;
6725;SDS011;3400;48.506;11.692;2023-06-10T10:59:43;6.03;;;5.53;;
6725;SDS011;3400;48.506;11.692;2023-06-10T11:02:14;6.20;;;5.53;;
6725;SDS011;3400;48.506;11.692;2023-06-10T11:04:44;5.63;;;5.13;;
6725;SDS011;3400;48.506;11.692;2023-06-10T11:07:13;6.07;;;5.57;;
6725;SDS011;3400;48.506;11.692;2023-06-10T11:09:58;5.63;;;5.23;;
6725;SDS011;3400;48.506;11.692;2023-06-10T11:12:33;5.90;;;5.40;;
6725;SDS011;3400;48.506;11.692;2023-06-10T11:15:06;5.77;;;5.33;;
6725;SDS011;3400;48.506;11.692;2023-06-10T11:17:34;6.30;;;5.70;;
6725;SDS011;3400;48.506;11.692;2023-06-10T11:20:02;5.50;;;5.10;;
6725;SDS011;3400;48.506;11.692;2023-06-10T11:22:31;4.63;;;4.23;;
6725;SDS011;3400;48.506;11.692;2023-06-10T11:25:00;16.40;;;6.90;;
6725;SDS011;3400;48.506;11.692;2023-06-10T11:27:28;10.70;;;6.57;;
6725;SDS011;3400;48.506;11.692;2023-06-10T11:30:17;10.20;;;6.50;;
6725;SDS011;3400;48.506;11.692;2023-06-10T11:32:45;6.77;;;6.00;;
6725;SDS011;3400;48.506;11.692;2023-06-10T11:35:18;7.40;;;5.93;;
6725;SDS011;3400;48.506;11.692;2023-06-10T11:37:47;852.33;;;651.73;;
6725;SDS011;3400;48.506;11.692;2023-06-10T11:40:17;872.17;;;745.17;;
6725;SDS011;3400;48.506;11.692;2023-06-10T11:42:45;1999.90;;;999.90;;
6725;SDS011;3400;48.506;11.692;2023-06-10T11:45:14;1999.90;;;999.90;;
6725;SDS011;3400;48.506;11.692;2023-06-10T11:47:55;1500.07;;;985.80;;
6725;SDS011;3400;48.506;11.692;2023-06-10T11:50:29;1992.77;;;999.90;;
6725;SDS011;3400;48.506;11.692;2023-06-10T11:52:57;1640.20;;;999.90;;
6725;SDS011;3400;48.506;11.692;2023-06-10T11:55:27;1406.37;;;934.27;;
6725;SDS011;3400;48.506;11.692;2023-06-10T11:58:05;1999.90;;;999.90;;
6725;SDS011;3400;48.506;11.692;2023-06-10T12:00:43;1339.23;;;898.57;;
6725;SDS011;3400;48.506;11.692;2023-06-10T12:03:11;1999.90;;;999.90;;
6725;SDS011;3400;48.506;11.692;2023-06-10T12:05:39;1239.57;;;853.00;;
6725;SDS011;3400;48.506;11.692;2023-06-10T12:08:10;1345.10;;;871.50;;
6725;SDS011;3400;48.506;11.692;2023-06-10T12:10:42;1118.30;;;764.47;;
6725;SDS011;3400;48.506;11.692;2023-06-10T12:13:10;869.20;;;634.07;;
6725;SDS011;3400;48.506;11.692;2023-06-10T12:15:38;581.40;;;420.40;;
6725;SDS011;3400;48.506;11.692;2023-06-10T12:18:06;335.87;;;220.47;;
6725;SDS011;3400;48.506;11.692;2023-06-10T12:20:35;168.17;;;113.50;;
6725;SDS011;3400;48.506;11.692;2023-06-10T12:23:10;353.03;;;237.77;;
6725;SDS011;3400;48.506;11.692;2023-06-10T12:25:38;251.03;;;161.20;;
6725;SDS011;3400;48.506;11.692;2023-06-10T12:28:09;139.60;;;92.43;;
6725;SDS011;3400;48.506;11.692;2023-06-10T12:30:37;180.67;;;119.77;;
6725;SDS011;3400;48.506;11.692;2023-06-10T12:33:08;121.57;;;81.63;;
6725;SDS011;3400;48.506;11.692;2023-06-10T12:35:46;116.83;;;76.90;;
6725;SDS011;3400;48.506;11.692;2023-06-10T12:38:20;39.53;;;26.23;;
6725;SDS011;3400;48.506;11.692;2023-06-10T12:40:50;35.53;;;23.37;;
6725;SDS011;3400;48.506;11.692;2023-06-10T12:43:20;101.17;;;52.20;;
6725;SDS011;3400;48.506;11.692;2023-06-10T12:45:49;62.87;;;42.03;;
6725;SDS011;3400;48.506;11.692;2023-06-10T12:48:18;44.80;;;28.33;;
6725;SDS011;3400;48.506;11.692;2023-06-10T12:50:50;29.23;;;19.87;;
6725;SDS011;3400;48.506;11.692;2023-06-10T12:53:18;28.07;;;19.20;;
6725;SDS011;3400;48.506;11.692;2023-06-10T12:55:46;34.23;;;24.73;;
6725;SDS011;3400;48.506;11.692;2023-06-10T12:58:15;23.87;;;16.93;;
6725;SDS011;3400;48.506;11.692;2023-06-10T13:00:44;10.10;;;8.83;;
6725;SDS011;3400;48.506;11.692;2023-06-10T13:03:12;16.20;;;12.73;;
6725;SDS011;3400;48.506;11.692;2023-06-10T13:05:40;13.83;;;8.40;;
6725;SDS011;3400;48.506;11.692;2023-06-10T13:08:08;16.87;;;11.57;;
6725;SDS011;3400;48.506;11.692;2023-06-10T13:10:36;21.20;;;15.90;;
6725;SDS011;3400;48.506;11.692;2023-06-10T13:13:04;7.67;;;6.90;;
6725;SDS011;3400;48.506;11.692;2023-06-10T13:15:33;7.47;;;6.70;;
6725;SDS011;3400;48.506;11.692;2023-06-10T13:18:04;10.13;;;4.83;;
6725;SDS011;3400;48.506;11.692;2023-06-10T13:20:31;10.93;;;5.77;;
6725;SDS011;3400;48.506;11.692;2023-06-10T13:22:59;5.00;;;4.60;;
6725;SDS011;3400;48.506;11.692;2023-06-10T13:25:27;5.07;;;4.67;;
6725;SDS011;3400;48.506;11.692;2023-06-10T13:27:55;7.40;;;4.97;;
6725;SDS011;3400;48.506;11.692;2023-06-10T13:30:23;7.67;;;4.57;;
6725;SDS011;3400;48.506;11.692;2023-06-10T13:32:52;4.93;;;4.43;;
6725;SDS011;3400;48.506;11.692;2023-06-10T13:35:21;4.97;;;4.20;;
6725;SDS011;3400;48.506;11.692;2023-06-10T13:37:49;4.63;;;4.13;;
6725;SDS011;3400;48.506;11.692;2023-06-10T13:40:16;4.40;;;3.80;;
6725;SDS011;3400;48.506;11.692;2023-06-10T13:42:45;4.63;;;4.23;;
6725;SDS011;3400;48.506;11.692;2023-06-10T13:45:16;4.13;;;3.83;;
6725;SDS011;3400;48.506;11.692;2023-06-10T13:47:46;4.00;;;3.70;;
6725;SDS011;3400;48.506;11.692;2023-06-10T13:50:15;3.47;;;3.17;;
6725;SDS011;3400;48.506;11.692;2023-06-10T13:52:44;3.70;;;3.40;;
6725;SDS011;3400;48.506;11.692;2023-06-10T13:55:12;5.10;;;4.07;;
6725;SDS011;3400;48.506;11.692;2023-06-10T13:57:41;4.03;;;3.73;;
6725;SDS011;3400;48.506;11.692;2023-06-10T14:00:09;4.20;;;3.90;;
6725;SDS011;3400;48.506;11.692;2023-06-10T14:02:37;4.17;;;3.87;;
6725;SDS011;3400;48.506;11.692;2023-06-10T14:05:06;4.70;;;4.30;;
6725;SDS011;3400;48.506;11.692;2023-06-10T14:07:34;3.70;;;3.40;;
6725;SDS011;3400;48.506;11.692;2023-06-10T14:10:04;4.17;;;3.87;;
6725;SDS011;3400;48.506;11.692;2023-06-10T14:12:34;4.40;;;4.10;;
6725;SDS011;3400;48.506;11.692;2023-06-10T14:15:02;3.73;;;3.43;;
6725;SDS011;3400;48.506;11.692;2023-06-10T14:17:30;3.97;;;3.67;;
6725;SDS011;3400;48.506;11.692;2023-06-10T14:19:58;4.20;;;3.90;;
6725;SDS011;3400;48.506;11.692;2023-06-10T14:22:26;4.37;;;4.07;;
6725;SDS011;3400;48.506;11.692;2023-06-10T14:24:53;4.50;;;4.20;;
6725;SDS011;3400;48.506;11.692;2023-06-10T14:27:23;4.80;;;4.30;;
6725;SDS011;3400;48.506;11.692;2023-06-10T14:29:50;4.60;;;4.30;;
6725;SDS011;3400;48.506;11.692;2023-06-10T14:32:18;4.47;;;4.17;;
6725;SDS011;3400;48.506;11.692;2023-06-10T14:34:46;5.63;;;5.13;;
6725;SDS011;3400;48.506;11.692;2023-06-10T14:37:14;4.77;;;4.47;;
6725;SDS011;3400;48.506;11.692;2023-06-10T14:39:48;4.53;;;4.13;;
6725;SDS011;3400;48.506;11.692;2023-06-10T14:42:16;4.93;;;4.47;;
6725;SDS011;3400;48.506;11.692;2023-06-10T14:44:45;6.00;;;4.77;;
6725;SDS011;3400;48.506;11.692;2023-06-10T14:47:13;4.40;;;4.00;;
6725;SDS011;3400;48.506;11.692;2023-06-10T14:49:41;4.50;;;4.10;;
6725;SDS011;3400;48.506;11.692;2023-06-10T14:52:09;6.73;;;4.43;;
6725;SDS011;3400;48.506;11.692;2023-06-10T14:54:37;4.07;;;3.77;;
6725;SDS011;3400;48.506;11.692;2023-06-10T14:57:05;4.10;;;3.80;;
6725;SDS011;3400;48.506;11.692;2023-06-10T14:59:33;5.83;;;4.10;;
6725;SDS011;3400;48.506;11.692;2023-06-10T15:02:02;4.70;;;4.30;;
6725;SDS011;3400;48.506;11.692;2023-06-10T15:04:30;4.30;;;4.00;;
6725;SDS011;3400;48.506;11.692;2023-06-10T15:06:59;4.60;;;4.20;;